Time;durP1;ratioP1;P1;durP2;ratioP2;P2;SDS_P1;SDS_P2;PMS_P1;PMS_P2;Temp;Humidity;BMP_temperature;BMP_pressure;BME280_temperature;BME280_humidity;BME280_pressure;Samples;Min_cycle;Max_cycle;Signal;HPM_P1;HPM_P2
2024/04/09 00:00:51;;;;;;;8.57;2.72;;;;;;;10.41;67.01;99760.66;5103684;27;20562;-94
2024/04/09 00:03:16;;;;;;;7.32;2.38;;;;;;;10.42;67.29;99762.31;5102551;27;20004;-93
2024/04/09 00:05:43;;;;;;;7.70;2.38;;;;;;;10.41;67.31;99760.66;5101843;27;20388;-93
2024/04/09 00:08:12;;;;;;;4.05;2.28;;;;;;;10.31;67.25;99736.34;5103463;27;20001;-93
2024/04/09 00:10:43;;;;;;;5.13;2.83;;;;;;;10.38;66.71;99734.28;5103957;27;20052;-93
2024/04/09 00:13:09;;;;;;;4.85;2.03;;;;;;;10.31;67.95;99725.59;5103322;27;20001;-92
2024/04/09 00:15:35;;;;;;;10.57;2.30;;;;;;;10.24;67.92;99733.84;5102283;27;20409;-93
2024/04/09 00:18:14;;;;;;;3.78;2.40;;;;;;;10.32;67.69;99743.38;5102232;27;20011;-95
2024/04/09 00:20:44;;;;;;;9.30;2.55;;;;;;;10.31;67.71;99744.44;5107723;27;20008;-95
2024/04/09 00:23:12;;;;;;;3.22;2.30;;;;;;;10.17;67.76;99740.50;5102974;27;20075;-94
2024/04/09 00:25:40;;;;;;;3.85;2.33;;;;;;;10.06;67.87;99728.88;5103826;27;20036;-94
2024/04/09 00:28:06;;;;;;;5.43;2.30;;;;;;;10.02;68.17;99742.03;5101552;27;20011;-95
2024/04/09 00:30:31;;;;;;;5.13;2.63;;;;;;;10.10;67.94;99754.19;5102647;27;20004;-94
2024/04/09 00:32:57;;;;;;;3.58;2.15;;;;;;;9.96;68.02;99739.53;5102273;27;20320;-93
2024/04/09 00:35:23;;;;;;;2.42;1.90;;;;;;;9.86;68.33;99722.25;5119607;27;20023;-92
2024/04/09 00:37:51;;;;;;;5.07;2.55;;;;;;;9.88;68.60;99730.06;5124547;27;20015;-94
2024/04/09 00:40:21;;;;;;;9.40;2.30;;;;;;;9.96;68.59;99747.59;5125182;27;20003;-93
2024/04/09 00:42:49;;;;;;;4.45;2.20;;;;;;;9.78;68.48;99741.53;5101420;27;20011;-94
2024/04/09 00:45:19;;;;;;;6.13;2.35;;;;;;;9.81;68.75;99740.22;5102551;27;20314;-94
2024/04/09 00:47:48;;;;;;;3.20;2.08;;;;;;;9.89;68.61;99742.44;5100872;27;19997;-94
2024/04/09 00:50:14;;;;;;;4.85;2.67;;;;;;;9.90;68.79;99742.19;5101316;27;20024;-94
2024/04/09 00:52:39;;;;;;;4.03;3.03;;;;;;;9.90;68.98;99738.69;5100855;27;20005;-93
2024/04/09 00:55:08;;;;;;;6.53;2.47;;;;;;;9.89;69.03;99748.63;5128864;27;20455;-94
2024/04/09 00:57:34;;;;;;;4.57;2.80;;;;;;;9.71;69.43;99722.09;5101990;27;20007;-93
2024/04/09 01:00:05;;;;;;;5.05;2.20;;;;;;;9.75;69.31;99736.66;5100913;27;20073;-94
2024/04/09 01:02:31;;;;;;;4.03;2.47;;;;;;;9.64;69.45;99733.03;5104075;27;20008;-94
2024/04/09 01:04:58;;;;;;;5.28;2.70;;;;;;;9.51;69.00;99715.44;5103805;27;20011;-95
2024/04/09 01:07:24;;;;;;;6.50;2.67;;;;;;;9.64;69.15;99751.06;5102244;27;19996;-94
2024/04/09 01:09:50;;;;;;;4.10;2.33;;;;;;;9.40;69.74;99716.41;5103217;27;20028;-94
2024/04/09 01:12:16;;;;;;;4.25;2.55;;;;;;;9.48;69.82;99737.47;5103107;27;20448;-93
2024/04/09 01:14:41;;;;;;;7.57;2.80;;;;;;;9.45;69.66;99729.09;5102368;27;20004;-95
2024/04/09 01:17:07;;;;;;;4.93;2.78;;;;;;;9.25;69.94;99717.03;5102121;27;20024;-94
2024/04/09 01:19:33;;;;;;;5.93;2.70;;;;;;;9.41;70.20;99734.16;5102060;27;19996;-92
2024/04/09 01:22:00;;;;;;;6.90;2.83;;;;;;;9.30;70.36;99729.72;5102577;27;20028;-92
2024/04/09 01:24:25;;;;;;;5.03;2.60;;;;;;;9.12;70.70;99698.63;5102349;27;20000;-94
2024/04/09 01:26:54;;;;;;;5.35;2.60;;;;;;;9.25;70.63;99721.59;5101912;27;20076;-93
2024/04/09 01:29:21;;;;;;;3.47;2.50;;;;;;;9.13;70.53;99707.47;5106608;27;20004;-93
2024/04/09 01:31:49;;;;;;;7.30;2.78;;;;;;;9.25;70.17;99717.03;5130789;27;20003;-96
2024/04/09 01:34:15;;;;;;;5.95;2.70;;;;;;;9.22;70.81;99739.03;5119586;27;20447;-93
2024/04/09 01:36:45;;;;;;;4.97;2.80;;;;;;;9.19;70.66;99722.59;5133671;27;19992;-93
2024/04/09 01:39:14;;;;;;;4.63;3.28;;;;;;;9.26;70.25;99731.28;5134028;27;20016;-93
2024/04/09 01:41:41;;;;;;;4.68;2.90;;;;;;;9.25;70.34;99730.47;5160615;27;20011;-93
2024/04/09 01:44:07;;;;;;;5.18;3.10;;;;;;;9.25;70.31;99725.09;5134192;27;20003;-94
2024/04/09 01:46:33;;;;;;;7.18;2.67;;;;;;;9.17;69.60;99708.59;5133246;27;20006;-95
2024/04/09 01:48:59;;;;;;;3.95;2.80;;;;;;;9.30;70.53;99733.22;5132862;27;20019;-93
2024/04/09 01:51:24;;;;;;;5.78;2.40;;;;;;;9.36;70.00;99728.72;5133945;27;20065;-93
2024/04/09 01:53:51;;;;;;;4.05;2.50;;;;;;;9.20;69.88;99716.97;5160223;27;20018;-92
2024/04/09 01:56:17;;;;;;;7.85;2.63;;;;;;;9.14;69.86;99711.81;5133144;27;20005;-93
2024/04/09 01:58:42;;;;;;;5.15;2.95;;;;;;;9.11;69.97;99713.13;5133897;27;20004;-92
2024/04/09 02:01:10;;;;;;;3.58;2.75;;;;;;;9.06;70.46;99723.78;5132837;27;20004;-93
2024/04/09 02:03:38;;;;;;;3.60;2.30;;;;;;;9.02;70.46;99723.47;5134019;27;20459;-93
2024/04/09 02:06:05;;;;;;;5.10;2.50;;;;;;;8.92;70.71;99719.84;5159632;27;20007;-93
2024/04/09 02:08:32;;;;;;;5.28;2.60;;;;;;;8.87;70.48;99720.59;5134699;27;19996;-93
2024/04/09 02:11:05;;;;;;;5.32;2.72;;;;;;;8.88;70.73;99722.22;5160646;27;20003;-93
2024/04/09 02:13:31;;;;;;;5.13;2.50;;;;;;;8.85;70.90;99726.22;5160716;27;19996;-94
2024/04/09 02:16:08;;;;;;;5.63;2.55;;;;;;;8.86;71.06;99725.16;5134073;27;20014;-94
2024/04/09 02:18:37;;;;;;;6.68;2.75;;;;;;;8.88;70.98;99733.78;5126542;27;20548;-94
2024/04/09 02:21:07;;;;;;;3.38;2.38;;;;;;;8.61;71.32;99706.84;5101996;27;20007;-93
2024/04/09 02:23:33;;;;;;;6.95;2.60;;;;;;;8.63;70.57;99717.31;5103309;27;20452;-94
2024/04/09 02:26:02;;;;;;;5.75;2.88;;;;;;;8.52;71.25;99712.88;5101536;27;19997;-94
2024/04/09 02:28:28;;;;;;;4.25;2.60;;;;;;;8.56;71.53;99727.41;5102904;27;20004;-94
2024/04/09 02:30:54;;;;;;;4.38;2.67;;;;;;;8.54;71.42;99722.28;5101031;27;20319;-93
2024/04/09 02:33:20;;;;;;;4.70;2.53;;;;;;;8.59;71.53;99730.44;5099727;27;20000;-96
2024/04/09 02:36:06;;;;;;;3.53;2.35;;;;;;;8.57;71.57;99726.34;5099842;27;20321;-94
2024/04/09 02:38:35;;;;;;;3.30;2.45;;;;;;;8.63;71.36;99744.16;5101257;27;20012;-93
2024/04/09 02:41:08;;;;;;;7.90;2.28;;;;;;;8.46;71.23;99715.47;5130995;27;20011;-93
2024/04/09 02:43:34;;;;;;;9.23;2.70;;;;;;;8.40;71.75;99719.09;5099443;27;19997;-94
2024/04/09 02:46:00;;;;;;;7.28;2.78;;;;;;;8.53;71.85;99755.56;5099737;27;20000;-95
2024/04/09 02:48:26;;;;;;;7.75;2.30;;;;;;;8.51;71.73;99755.00;5100022;27;19996;-94
2024/04/09 02:50:59;;;;;;;13.40;4.03;;;;;;;8.38;71.92;99736.50;5099265;27;20012;-94
2024/04/09 02:53:25;;;;;;;5.50;2.70;;;;;;;8.44;71.54;99740.91;5113207;27;20015;-93
2024/04/09 02:56:10;;;;;;;5.32;2.65;;;;;;;8.32;71.81;99738.28;5131456;27;19996;-93
2024/04/09 02:58:35;;;;;;;4.85;2.30;;;;;;;8.19;72.05;99725.22;5101458;27;20011;-93
2024/04/09 03:01:06;;;;;;;4.05;2.85;;;;;;;8.20;72.16;99734.91;5098169;27;19997;-92
2024/04/09 03:03:32;;;;;;;5.00;2.97;;;;;;;8.26;72.45;99758.88;5127111;27;20053;-92
2024/04/09 03:06:07;;;;;;;8.55;2.42;;;;;;;8.20;72.20;99737.59;5099384;27;20000;-94
2024/04/09 03:08:33;;;;;;;8.00;3.20;;;;;;;8.18;72.29;99742.38;5154017;27;20008;-94
2024/04/09 03:10:59;;;;;;;3.95;2.33;;;;;;;8.11;72.54;99737.16;5127694;27;20036;-94
2024/04/09 03:13:25;;;;;;;7.40;2.83;;;;;;;8.29;72.11;99747.63;5128527;27;20001;-94
2024/04/09 03:15:54;;;;;;;4.72;2.90;;;;;;;8.14;72.34;99734.00;5103384;27;20000;-93
2024/04/09 03:18:19;;;;;;;5.28;2.60;;;;;;;8.26;71.70;99731.25;5129911;27;19996;-94
2024/04/09 03:20:45;;;;;;;6.80;2.67;;;;;;;8.46;71.34;99752.22;5130681;27;19996;-94
2024/04/09 03:23:11;;;;;;;4.00;2.42;;;;;;;8.48;70.78;99734.00;5103945;27;20008;-94
2024/04/09 03:25:36;;;;;;;2.50;2.10;;;;;;;8.58;70.03;99739.53;5129520;27;20335;-94
2024/04/09 03:28:02;;;;;;;3.97;2.40;;;;;;;8.57;70.07;99737.91;5103057;27;20004;-94
2024/04/09 03:30:28;;;;;;;3.95;2.70;;;;;;;8.64;69.79;99740.41;5104408;27;20432;-93
2024/04/09 03:32:53;;;;;;;5.78;2.50;;;;;;;8.71;69.70;99754.47;5103701;27;20008;-95
2024/04/09 03:35:19;;;;;;;4.68;2.75;;;;;;;8.42;70.68;99743.84;5130785;27;20001;-95
2024/04/09 03:37:47;;;;;;;9.35;2.97;;;;;;;8.47;70.68;99764.59;5157751;27;20007;-94
2024/04/09 03:40:12;;;;;;;4.60;2.55;;;;;;;8.41;70.95;99760.22;5105705;27;20069;-96
2024/04/09 03:42:38;;;;;;;8.48;3.30;;;;;;;8.38;70.58;99760.66;5105319;27;20412;-95
2024/04/09 03:45:08;;;;;;;7.03;2.80;;;;;;;8.39;71.16;99783.75;5104169;27;20058;-96
2024/04/09 03:47:34;;;;;;;11.45;3.17;;;;;;;8.30;71.16;99788.72;5106986;27;20013;-96
2024/04/09 03:50:01;;;;;;;6.35;3.00;;;;;;;8.19;71.19;99778.84;5103627;27;20012;-95
2024/04/09 03:52:26;;;;;;;5.00;2.20;;;;;;;7.95;71.27;99765.59;5156694;27;20008;-94
2024/04/09 03:54:53;;;;;;;4.72;2.63;;;;;;;8.02;71.71;99792.25;5129324;27;20008;-96
2024/04/09 03:57:18;;;;;;;15.18;6.50;;;;;;;7.87;72.38;99790.91;5103080;27;20013;-93
2024/04/09 03:59:44;;;;;;;24.48;9.00;;;;;;;7.67;71.97;99764.53;5102546;27;20447;-95
2024/04/09 04:02:10;;;;;;;26.73;6.05;;;;;;;7.65;72.24;99768.50;5129733;27;20005;-95
2024/04/09 04:04:35;;;;;;;5.47;3.40;;;;;;;7.82;72.45;99795.38;5103943;27;20028;-93
2024/04/09 04:07:01;;;;;;;4.25;3.30;;;;;;;7.67;72.17;99772.56;5104791;27;20000;-96
2024/04/09 04:09:27;;;;;;;14.75;3.55;;;;;;;7.63;72.62;99774.09;5172297;27;19999;-91
2024/04/09 04:11:53;;;;;;;11.80;3.53;;;;;;;7.65;72.69;99772.00;5123408;27;20442;-93
2024/04/09 04:14:21;;;;;;;3.95;2.97;;;;;;;7.68;72.95;99787.63;5111308;27;20006;-92
2024/04/09 04:16:47;;;;;;;8.02;3.03;;;;;;;7.55;73.23;99787.06;5158205;27;19996;-92
2024/04/09 04:19:16;;;;;;;11.05;3.42;;;;;;;7.52;73.49;99782.22;5114553;27;20008;-93
2024/04/09 04:21:42;;;;;;;5.43;3.38;;;;;;;7.44;73.34;99764.63;5130038;27;20060;-92
2024/04/09 04:24:09;;;;;;;7.70;3.03;;;;;;;7.43;72.98;99766.50;5130924;27;20000;-94
2024/04/09 04:26:35;;;;;;;18.13;4.18;;;;;;;7.56;73.87;99786.84;5155649;27;20324;-91
2024/04/09 04:29:01;;;;;;;5.80;3.28;;;;;;;7.59;73.55;99772.16;5126680;27;20019;-92
2024/04/09 04:31:29;;;;;;;4.45;3.33;;;;;;;7.75;73.28;99792.84;5123910;27;20008;-92
2024/04/09 04:33:55;;;;;;;13.82;3.75;;;;;;;7.74;73.27;99785.03;5110914;27;20020;-92
2024/04/09 04:36:21;;;;;;;6.43;4.25;;;;;;;7.71;72.72;99772.13;5118838;27;20084;-90
2024/04/09 04:38:47;;;;;;;4.32;2.70;;;;;;;7.70;72.72;99779.34;5133969;27;20116;-90
2024/04/09 04:41:13;;;;;;;7.75;3.00;;;;;;;7.70;72.90;99768.63;5136909;27;19996;-92
2024/04/09 04:43:39;;;;;;;15.90;3.75;;;;;;;7.78;72.77;99762.88;5135058;27;20007;-92
2024/04/09 04:46:06;;;;;;;9.60;3.60;;;;;;;7.94;72.51;99782.72;5134862;27;20070;-92
2024/04/09 04:48:39;;;;;;;7.50;3.72;;;;;;;8.01;72.08;99783.41;5148752;27;20004;-93
2024/04/09 04:51:05;;;;;;;9.18;4.35;;;;;;;8.02;72.27;99786.88;5140709;27;20011;-92
2024/04/09 04:53:35;;;;;;;12.15;3.83;;;;;;;8.19;71.60;99778.84;5116832;27;20014;-92
2024/04/09 04:56:00;;;;;;;27.27;5.88;;;;;;;8.37;71.54;99802.78;5146933;27;20024;-91
2024/04/09 04:58:26;;;;;;;56.25;6.97;;;;;;;8.35;70.97;99779.94;5155087;27;20522;-91
2024/04/09 05:00:55;;;;;;;8.98;4.95;;;;;;;8.54;70.99;99792.06;5130294;27;20004;-93
2024/04/09 05:03:41;;;;;;;10.90;4.55;;;;;;;8.66;70.67;99790.13;5129623;27;19997;-94
2024/04/09 05:06:08;;;;;;;11.30;4.47;;;;;;;8.75;70.56;99798.56;5128803;27;20036;-93
2024/04/09 05:08:38;;;;;;;42.58;14.57;;;;;;;8.83;70.71;99800.03;5130944;27;20024;-94
2024/04/09 05:17:46;;;;;;;8.80;3.95;;;;;;;9.05;68.73;99781.28;5070025;27;20043;-96
2024/04/09 05:20:29;;;;;;;8.00;4.27;;;;;;;9.16;69.12;99792.97;5041189;28;20009;-95
2024/04/09 05:23:10;;;;;;;;;;;;;;;;;;;;;
2024/04/09 05:25:49;;;;;;;12.48;4.45;;;;;;;9.28;68.78;99785.59;5072317;28;20015;-93
2024/04/09 05:28:14;;;;;;;6.30;3.95;;;;;;;9.51;68.21;99790.72;5039075;28;20454;-92
2024/04/09 05:30:43;;;;;;;9.00;4.30;;;;;;;9.60;68.01;99787.59;5090853;28;20062;-90
2024/04/09 05:33:13;;;;;;;7.00;3.42;;;;;;;9.77;67.23;99782.13;5090479;28;20373;-91
2024/04/09 05:35:52;;;;;;;7.70;4.60;;;;;;;9.90;67.07;99784.41;5143005;27;20002;-93
2024/04/09 05:38:23;;;;;;;12.98;3.83;;;;;;;10.05;66.01;99783.75;5094064;28;20058;-93
2024/04/09 05:40:58;;;;;;;10.30;3.45;;;;;;;10.20;65.31;99785.75;5133811;27;20021;-93
2024/04/09 05:43:36;;;;;;;7.57;2.90;;;;;;;10.23;64.34;99769.09;5048821;27;20005;-94
2024/04/09 05:46:02;;;;;;;4.47;2.53;;;;;;;10.46;63.15;99773.38;5173141;27;20070;-93
2024/04/09 05:48:28;;;;;;;5.63;2.60;;;;;;;10.65;62.85;99779.97;5166124;27;20419;-91
2024/04/09 05:51:16;;;;;;;15.27;3.60;;;;;;;10.93;62.56;99796.84;5167029;27;20074;-92
2024/04/09 05:53:52;;;;;;;5.97;3.05;;;;;;;10.97;62.30;99776.38;5194875;27;19999;-94
2024/04/09 05:56:45;;;;;;;;;;;;;;;;;;;;;
2024/04/09 05:59:12;;;;;;;4.75;2.75;;;;;;;11.31;60.50;99793.00;5202356;27;19999;-93
2024/04/09 06:01:47;;;;;;;5.38;2.90;;;;;;;11.38;60.24;99775.78;5164760;27;20031;-92
2024/04/09 06:04:16;;;;;;;3.53;2.30;;;;;;;11.66;59.64;99788.84;5146178;27;20015;-91
2024/04/09 06:06:45;;;;;;;9.23;3.25;;;;;;;11.68;59.37;99764.25;5127256;27;20008;-91
2024/04/09 06:09:14;;;;;;;3.25;2.10;;;;;;;11.87;58.32;99776.19;5140181;27;20003;-91
2024/04/09 06:11:40;;;;;;;5.28;1.75;;;;;;;11.81;58.10;99754.88;5132907;27;20036;-93
2024/04/09 06:14:06;;;;;;;6.97;2.63;;;;;;;11.99;57.58;99762.47;5160121;27;20003;-92
2024/04/09 06:16:36;;;;;;;7.40;2.42;;;;;;;12.08;57.30;99754.66;5161181;27;19996;-93
2024/04/09 06:19:17;;;;;;;90.38;38.28;;;;;;;12.17;57.01;99757.63;5163851;27;20011;-94
2024/04/09 06:24:38;;;;;;;8.02;4.88;;;;;;;12.35;57.55;99751.69;5191915;27;20335;-92
2024/04/09 06:27:06;;;;;;;7.20;4.50;;;;;;;12.62;56.96;99756.00;5159876;27;20007;-93
2024/04/09 06:29:34;;;;;;;5.47;3.08;;;;;;;12.80;56.24;99750.00;5132253;27;20008;-93
2024/04/09 06:32:16;;;;;;;12.10;3.10;;;;;;;12.88;55.50;99748.66;5165453;27;20029;-92
2024/04/09 06:35:24;;;;;;;5.63;3.03;;;;;;;13.10;54.96;99753.72;5115306;27;20076;-91
2024/04/09 06:38:44;;;;;;;;;;;;;;;;;;;;;
2024/04/09 06:41:11;;;;;;;8.55;3.10;;;;;;;13.68;54.27;99778.38;5084328;28;20014;-92
2024/04/09 06:43:45;;;;;;;10.63;3.00;;;;;;;13.69;53.64;99752.13;5030324;28;19999;-91
2024/04/09 06:46:11;;;;;;;6.55;2.90;;;;;;;13.79;53.03;99741.22;5032384;28;20158;-91
2024/04/09 06:48:46;;;;;;;10.73;3.33;;;;;;;14.10;53.17;99766.19;5047627;28;20017;-95
2024/04/09 06:51:47;;;;;;;8.05;3.05;;;;;;;14.15;53.31;99752.63;5043168;28;20009;-94
2024/04/09 06:54:13;;;;;;;13.07;6.13;;;;;;;14.52;52.46;99780.22;5084495;27;20017;-95
2024/04/09 06:56:48;;;;;;;22.92;11.70;;;;;;;14.55;51.70;99750.69;5038813;28;19999;-94
2024/04/09 06:59:39;;;;;;;6.05;2.95;;;;;;;14.70;50.81;99744.31;5020205;28;20012;-95
2024/04/09 07:02:35;;;;;;;10.82;3.88;;;;;;;14.87;50.42;99748.47;5087476;28;19998;-95
2024/04/09 07:08:07;;;;;;;11.93;4.72;;;;;;;15.27;49.65;99752.63;5083840;28;20009;-94
2024/04/09 07:10:42;;;;;;;8.30;3.47;;;;;;;15.45;49.76;99758.38;5102747;27;20002;-96
2024/04/09 07:13:22;;;;;;;16.20;3.88;;;;;;;15.67;48.98;99774.91;5147371;27;20007;-93
2024/04/09 07:24:18;;;;;;;18.02;4.57;;;;;;;16.21;46.10;99731.22;5023874;28;20015;-93
2024/04/09 07:26:46;;;;;;;12.30;4.13;;;;;;;16.43;44.29;99731.38;4995520;28;20005;-93
2024/04/09 07:29:15;;;;;;;7.78;3.55;;;;;;;16.63;43.80;99732.94;4981517;28;20040;-93
2024/04/09 07:31:44;;;;;;;12.20;4.85;;;;;;;16.89;44.46;99751.53;5040187;28;20363;-92
2024/04/09 07:34:13;;;;;;;10.25;4.22;;;;;;;16.91;44.27;99728.38;5077310;28;20006;-93
2024/04/09 07:36:47;;;;;;;6.80;3.20;;;;;;;17.20;43.14;99740.84;5102962;28;20138;-93
2024/04/09 07:39:20;;;;;;;10.00;4.47;;;;;;;17.30;40.44;99737.13;5048422;28;20014;-92
2024/04/09 07:41:46;;;;;;;8.30;3.17;;;;;;;17.37;38.37;99727.44;5090393;27;20001;-93
2024/04/09 07:44:19;;;;;;;8.43;2.53;;;;;;;17.53;36.90;99727.91;5082144;28;20143;-90
2024/04/09 07:47:07;;;;;;;3.22;2.08;;;;;;;17.73;35.27;99734.81;5150912;27;20013;-92
2024/04/09 07:49:33;;;;;;;5.28;2.55;;;;;;;17.89;36.33;99734.50;5153491;27;20016;-93
2024/04/09 07:52:05;;;;;;;10.82;2.72;;;;;;;17.84;36.32;99731.88;5129671;27;20891;-91
2024/04/09 07:54:30;;;;;;;;;;;;;;;18.16;36.33;99744.50;5103762;27;20100;-95
2024/04/09 07:57:31;;;;;;;7.43;2.72;;;;;;;18.12;35.08;99718.97;5155175;27;19940;-93
2024/04/09 08:00:20;;;;;;;50.30;17.65;;;;;;;18.34;34.21;99734.47;4972905;28;20031;-92
2024/04/09 08:02:46;;;;;;;17.92;5.75;;;;;;;18.46;34.59;99723.00;5026235;27;19996;-93
2024/04/09 08:06:02;;;;;;;7.07;1.92;;;;;;;18.66;34.70;99740.78;5103722;27;19997;-92
2024/04/09 08:08:57;;;;;;;1.75;1.08;;;;;;;18.85;32.46;99729.66;5157769;27;20012;-93
2024/04/09 08:11:44;;;;;;;;;;;;;;;;;;;;;
2024/04/09 08:15:03;;;;;;;9.70;1.48;;;;;;;18.81;30.37;99709.59;5140087;27;20004;-94
2024/04/09 08:17:31;;;;;;;2.22;1.20;;;;;;;18.94;29.83;99705.94;5055806;28;20116;-91
2024/04/09 08:22:42;;;;;;;3.08;1.50;;;;;;;19.21;26.95;99706.81;5159901;27;20019;-94
2024/04/09 08:25:31;;;;;;;7.10;3.00;;;;;;;19.33;27.36;99707.78;5125247;27;20004;-93
2024/04/09 08:28:01;;;;;;;6.10;1.60;;;;;;;19.50;26.48;99723.38;5155050;27;20008;-93
2024/04/09 08:30:26;;;;;;;4.88;1.80;;;;;;;19.61;26.26;99710.25;5111276;27;20056;-93
2024/04/09 08:32:55;;;;;;;8.15;1.70;;;;;;;19.74;25.83;99720.25;5127938;27;20012;-93
2024/04/09 08:35:32;;;;;;;1.75;1.30;;;;;;;19.83;25.54;99722.97;5132588;27;20000;-94
2024/04/09 08:38:01;;;;;;;2.35;1.00;;;;;;;19.85;24.80;99709.78;5109795;27;20005;-93
2024/04/09 08:40:58;;;;;;;3.13;1.80;;;;;;;20.02;24.89;99722.63;5106922;27;20008;-94
2024/04/09 08:43:41;;;;;;;3.40;1.33;;;;;;;19.94;24.93;99683.28;5129675;27;20104;-92
2024/04/09 08:46:10;;;;;;;5.45;1.65;;;;;;;20.05;25.37;99691.13;5129949;27;20004;-91
2024/04/09 08:48:39;;;;;;;5.30;2.75;;;;;;;20.07;25.52;99684.22;5128963;27;20001;-91
2024/04/09 08:51:05;;;;;;;2.72;1.50;;;;;;;20.08;25.09;99685.81;5102004;27;20000;-91
2024/04/09 08:53:38;;;;;;;5.82;3.95;;;;;;;20.14;25.91;99700.13;5156223;27;20471;-92
2024/04/09 08:56:05;;;;;;;2.90;1.38;;;;;;;20.25;26.14;99703.31;5155083;27;19996;-91
2024/04/09 08:58:30;;;;;;;6.15;3.20;;;;;;;20.13;25.58;99691.13;5132541;27;20004;-92
2024/04/09 09:01:58;;;;;;;4.70;1.85;;;;;;;20.05;25.33;99691.94;5179885;27;20003;-88
2024/04/09 09:04:25;;;;;;;3.22;2.17;;;;;;;20.04;25.80;99689.50;5210998;27;20011;-92
2024/04/09 09:07:00;;;;;;;2.55;1.70;;;;;;;20.04;25.43;99684.03;5144514;27;20065;-92
2024/04/09 09:09:33;;;;;;;2.72;1.50;;;;;;;20.19;25.31;99687.09;5178661;27;20004;-93
2024/04/09 09:12:09;;;;;;;3.15;1.85;;;;;;;20.16;25.85;99675.97;5103469;27;20089;-93
2024/04/09 09:15:03;;;;;;;;;;;;;;;;;;;;;
2024/04/09 09:17:59;;;;;;;3.92;1.30;;;;;;;20.16;27.12;99673.25;5183343;27;20004;-93
2024/04/09 09:24:04;;;;;;;10.68;6.03;;;;;;;20.32;27.33;99670.81;5152066;27;19998;-92
2024/04/09 09:26:39;;;;;;;3.08;1.90;;;;;;;20.37;25.83;99667.88;5123153;27;19999;-92
2024/04/09 09:29:11;;;;;;;2.10;1.55;;;;;;;20.48;26.71;99657.38;5146617;27;20004;-93
2024/04/09 09:31:46;;;;;;;6.28;2.67;;;;;;;20.59;26.28;99648.53;5111169;27;20009;-93
2024/04/09 09:34:24;;;;;;;2.30;1.33;;;;;;;20.69;25.65;99668.44;5143777;27;20012;-92
2024/04/09 09:37:08;;;;;;;2.42;1.40;;;;;;;20.63;26.33;99650.59;5126458;27;20004;-94
2024/04/09 09:40:48;;;;;;;;;;;;;;;;;;;;;
2024/04/09 09:43:21;;;;;;;2.67;1.77;;;;;;;20.69;27.41;99652.84;5111018;28;20107;-91
2024/04/09 09:45:57;;;;;;;5.75;1.90;;;;;;;20.76;27.89;99650.38;5038083;28;20350;-92
2024/04/09 09:48:32;;;;;;;2.20;1.30;;;;;;;20.84;26.74;99654.19;5086575;27;20012;-93
2024/04/09 09:51:10;;;;;;;9.23;6.03;;;;;;;20.86;25.81;99641.00;5153533;27;20040;-93
2024/04/09 09:53:51;;;;;;;;;;;;;;;;;;;;;
2024/04/09 10:36:30;;;;;;;1.52;1.15;;;;;;;21.24;25.78;99596.28;5186927;27;20040;-93
2024/04/09 10:39:29;;;;;;;2.95;1.85;;;;;;;21.29;26.68;99596.09;5105271;27;20013;-92
2024/04/09 10:45:19;;;;;;;1.70;1.13;;;;;;;21.43;25.43;99593.09;5077121;28;20010;-91
2024/04/09 10:48:17;;;;;;;3.15;1.20;;;;;;;21.40;25.53;99583.56;5036581;28;20002;-93
2024/04/09 10:58:06;;;;;;;2.97;1.38;;;;;;;21.48;24.90;99592.91;5056711;28;20010;-94
2024/04/09 11:01:37;;;;;;;;;;;;;;;;;;;;;
2024/04/09 11:04:18;;;;;;;2.03;1.00;;;;;;;21.58;25.47;99580.69;4991609;28;20515;-92
2024/04/09 11:10:19;;;;;;;3.65;1.30;;;;;;;21.59;24.88;99554.91;4905530;29;20017;-91
2024/04/09 11:13:04;;;;;;;1.63;1.00;;;;;;;21.69;24.43;99562.72;4891717;29;20033;-93
2024/04/09 11:15:38;;;;;;;1.55;1.15;;;;;;;21.77;24.20;99553.59;4906559;29;20020;-93
2024/04/09 11:18:29;;;;;;;;;;;;;;;;;;;;;
2024/04/09 11:21:12;;;;;;;1.60;1.08;;;;;;;21.77;24.54;99564.56;4982048;28;20006;-92
2024/04/09 11:24:30;;;;;;;1.70;1.00;;;;;;;21.74;24.25;99548.78;5045339;28;20453;-95
2024/04/09 11:26:59;;;;;;;4.93;2.10;;;;;;;21.76;24.73;99546.50;5021392;28;20008;-92
2024/04/09 11:29:38;;;;;;;;;;;;;;;;;;;;;
2024/04/09 11:32:09;;;;;;;3.00;1.90;;;;;;;21.99;24.48;99548.81;5092870;28;20005;-92
2024/04/09 13:05:52;;;;;;;3.15;1.20;;;;;;;22.60;23.15;99463.00;2642037;22;20345;-91
2024/04/09 13:08:50;;;;;;;6.45;1.58;;;;;;;22.59;23.31;99459.44;5151482;27;20021;-94
2024/04/09 13:11:28;;;;;;;4.10;1.40;;;;;;;22.59;23.61;99450.41;5157599;27;20024;-94
2024/04/09 13:14:30;;;;;;;2.10;1.10;;;;;;;22.60;22.86;99441.84;5148750;27;20328;-94
2024/04/09 13:17:11;;;;;;;1.25;1.05;;;;;;;22.70;22.44;99454.28;5132194;27;20005;-96
2024/04/09 13:20:34;;;;;;;1.63;1.00;;;;;;;22.65;22.79;99440.78;5107002;27;20011;-93
2024/04/09 13:23:03;;;;;;;1.98;1.10;;;;;;;22.74;22.28;99446.94;5064720;28;20010;-91
2024/04/09 13:25:31;;;;;;;2.00;1.25;;;;;;;22.91;22.67;99437.63;5066840;28;20010;-95
2024/04/09 13:28:03;;;;;;;2.42;1.40;;;;;;;22.95;22.53;99440.44;5058435;28;20010;-95
2024/04/09 13:30:52;;;;;;;3.75;1.38;;;;;;;23.03;22.33;99447.75;5038832;27;20002;-92
2024/04/09 13:33:49;;;;;;;1.63;1.10;;;;;;;23.07;22.01;99437.66;5080531;28;20018;-92
2024/04/09 13:36:18;;;;;;;2.60;1.40;;;;;;;23.11;22.10;99427.59;5028619;28;20042;-93
2024/04/09 13:38:53;;;;;;;2.75;1.25;;;;;;;23.17;22.51;99442.66;5036028;28;19998;-93
2024/04/09 13:41:31;;;;;;;;;;;;;;;;;;;;;
2024/04/09 13:43:57;;;;;;;5.28;1.23;;;;;;;23.18;22.70;99435.25;5061595;28;19995;-91
2024/04/09 13:46:40;;;;;;;3.67;1.38;;;;;;;23.18;22.37;99425.03;5020955;27;19997;-94
2024/04/09 13:49:06;;;;;;;3.47;1.35;;;;;;;23.10;22.03;99404.03;5069556;27;20012;-89
2024/04/09 13:51:32;;;;;;;3.25;1.10;;;;;;;23.17;22.53;99422.63;5069471;27;20009;-92
2024/04/09 13:54:30;;;;;;;5.63;1.35;;;;;;;23.17;22.11;99412.44;5069110;27;20005;-91
2024/04/09 13:57:36;;;;;;;4.18;1.25;;;;;;;23.34;21.59;99430.53;4990136;28;20033;-91
2024/04/09 14:00:11;;;;;;;1.77;1.20;;;;;;;23.44;21.72;99422.94;4967233;28;20310;-92
2024/04/09 14:02:48;;;;;;;19.30;13.68;;;;;;;23.42;21.53;99409.56;4945019;28;20092;-91
2024/04/09 14:05:18;;;;;;;5.68;1.75;;;;;;;23.54;21.49;99416.91;4967618;28;20023;-92
2024/04/09 14:07:52;;;;;;;3.00;1.77;;;;;;;23.51;21.30;99404.69;4973567;28;20073;-93
2024/04/09 14:13:27;;;;;;;;;;;;;;;;;;;;;
2024/04/09 14:16:10;;;;;;;1.90;1.20;;;;;;;23.90;21.27;99409.56;4969473;28;20001;-95
2024/04/09 14:19:12;;;;;;;1.42;1.13;;;;;;;23.91;20.43;99397.41;4941515;28;20156;-95
2024/04/09 14:25:04;;;;;;;2.17;1.40;;;;;;;24.27;20.96;99411.97;4938394;29;20030;-92
2024/04/09 14:27:40;;;;;;;5.88;2.92;;;;;;;24.26;20.40;99397.44;4958367;28;19994;-92
2024/04/09 14:30:11;;;;;;;2.97;1.48;;;;;;;24.55;19.91;99423.63;5088315;28;20021;-94
2024/04/09 14:32:40;;;;;;;1.15;0.93;;;;;;;24.56;21.06;99397.69;5037397;28;20047;-89
2024/04/09 14:35:27;;;;;;;;;;;;;;;;;;;;;
2024/04/09 14:38:09;;;;;;;1.60;0.95;;;;;;;25.05;20.92;99390.78;5059473;28;20007;-96
2024/04/09 14:41:27;;;;;;;2.83;1.50;;;;;;;25.47;21.57;99398.22;5009671;28;20014;-92
2024/04/09 14:44:40;;;;;;;;;;;;;;;;;;;;;
2024/04/09 14:47:21;;;;;;;;;;;;;;;;;;;;;
2024/04/09 14:50:04;;;;;;;4.50;2.60;;;;;;;26.47;19.20;99390.66;4972949;28;20021;-93
2024/04/09 14:52:35;;;;;;;3.58;1.20;;;;;;;26.55;19.79;99378.53;4937118;29;20010;-95
2024/04/09 14:55:03;;;;;;;2.72;1.15;;;;;;;26.89;18.66;99374.97;4997779;28;20463;-91
2024/04/09 14:57:35;;;;;;;3.53;1.35;;;;;;;27.31;18.46;99371.88;5056804;28;20087;-93
2024/04/09 15:00:18;;;;;;;4.10;1.08;;;;;;;27.51;18.48;99368.88;5106478;28;20440;-93
2024/04/09 15:02:47;;;;;;;3.20;1.50;;;;;;;27.53;18.51;99388.66;5087346;27;20390;-92
2024/04/09 15:05:34;;;;;;;2.38;1.10;;;;;;;26.86;19.50;99386.81;5062277;28;20001;-92
2024/04/09 15:08:03;;;;;;;1.45;1.17;;;;;;;26.35;19.55;99374.31;5102118;27;20046;-92
2024/04/09 15:10:29;;;;;;;1.35;1.05;;;;;;;26.00;19.66;99384.50;5082517;27;20005;-92
2024/04/09 15:12:55;;;;;;;2.30;1.27;;;;;;;25.77;19.93;99380.97;5095686;27;20020;-93
2024/04/09 15:15:33;;;;;;;2.67;1.05;;;;;;;25.34;21.05;99372.03;5073031;27;20005;-93
2024/04/09 15:18:00;;;;;;;1.95;1.50;;;;;;;24.80;20.93;99373.78;5071442;27;20017;-90
2024/04/09 15:20:35;;;;;;;2.38;1.40;;;;;;;24.31;21.68;99374.31;5098197;27;20005;-92
2024/04/09 15:23:25;;;;;;;4.50;1.33;;;;;;;24.18;21.73;99379.16;5071020;27;20012;-90
2024/04/09 15:25:54;;;;;;;2.28;1.30;;;;;;;23.99;21.75;99386.22;5107564;27;20005;-93